Time;durP1;ratioP1;P1;durP2;ratioP2;P2;SDS_P1;SDS_P2;PMS_P1;PMS_P2;Temp;Humidity;BMP_temperature;BMP_pressure;BME280_temperature;BME280_humidity;BME280_pressure;Samples;Min_cycle;Max_cycle;Signal;HPM_P1;HPM_P2
2023/10/24 00:00:43;;;;;;;3.03;2.83;;;;;;;;;;5044337;28;20045;-60
2023/10/24 00:03:11;;;;;;;3.15;2.95;;;;;;;;;;5042044;28;20045;-60
2023/10/24 00:05:40;;;;;;;2.97;2.83;;;;;;;;;;5040787;28;20516;-60
2023/10/24 00:08:08;;;;;;;2.92;2.83;;;;;;;;;;5044704;28;20390;-61
2023/10/24 00:10:38;;;;;;;2.85;2.65;;;;;;;;;;5044170;28;20076;-60
2023/10/24 00:13:07;;;;;;;2.75;2.65;;;;;;;;;;5044730;28;20051;-61
2023/10/24 00:15:36;;;;;;;3.30;3.10;;;;;;;;;;5043164;28;20056;-61
2023/10/24 00:18:04;;;;;;;3.22;3.03;;;;;;;;;;5042915;28;20132;-60
2023/10/24 00:20:32;;;;;;;2.75;2.65;;;;;;;;;;5045163;28;20114;-60
2023/10/24 00:23:01;;;;;;;3.20;3.00;;;;;;;;;;5044190;28;20335;-61
2023/10/24 00:25:29;;;;;;;3.22;3.05;;;;;;;;;;5043016;28;20118;-61
2023/10/24 00:27:59;;;;;;;3.00;2.80;;;;;;;;;;5042062;28;20418;-61
2023/10/24 00:30:27;;;;;;;3.10;2.88;;;;;;;;;;5043769;28;20048;-60
2023/10/24 00:32:56;;;;;;;3.38;3.17;;;;;;;;;;5043895;28;20138;-61
2023/10/24 00:35:24;;;;;;;3.03;2.83;;;;;;;;;;5040814;28;20045;-61
2023/10/24 00:37:52;;;;;;;3.45;3.15;;;;;;;;;;5043027;28;20040;-61
2023/10/24 00:40:21;;;;;;;3.28;3.03;;;;;;;;;;5041845;28;20090;-60
2023/10/24 00:42:53;;;;;;;3.00;2.80;;;;;;;;;;5044376;28;20047;-61
2023/10/24 00:45:22;;;;;;;2.90;2.70;;;;;;;;;;5043870;28;20137;-61
2023/10/24 00:47:51;;;;;;;3.45;3.25;;;;;;;;;;5042403;28;20441;-61
2023/10/24 00:50:19;;;;;;;3.78;3.47;;;;;;;;;;5042666;28;20275;-61
2023/10/24 00:52:48;;;;;;;3.30;3.10;;;;;;;;;;5042135;28;20048;-61
2023/10/24 00:55:17;;;;;;;3.63;3.33;;;;;;;;;;5044069;28;20448;-61
2023/10/24 00:57:45;;;;;;;3.00;2.72;;;;;;;;;;5043837;28;20049;-61
2023/10/24 01:00:14;;;;;;;3.22;3.03;;;;;;;;;;5039874;28;20169;-62
2023/10/24 01:02:44;;;;;;;2.90;2.70;;;;;;;;;;5042273;28;20095;-61
2023/10/24 01:05:13;;;;;;;2.75;2.55;;;;;;;;;;5041636;28;20044;-61
2023/10/24 01:07:41;;;;;;;3.10;2.90;;;;;;;;;;5043670;28;20490;-62
2023/10/24 01:10:10;;;;;;;2.95;2.70;;;;;;;;;;5040192;28;20055;-61
2023/10/24 01:12:38;;;;;;;3.28;2.97;;;;;;;;;;5042133;28;20052;-61
2023/10/24 01:15:07;;;;;;;2.85;2.65;;;;;;;;;;5043304;28;20064;-61
2023/10/24 01:17:36;;;;;;;3.45;3.17;;;;;;;;;;5041356;28;20076;-61
2023/10/24 01:20:06;;;;;;;3.10;2.90;;;;;;;;;;5041214;28;20056;-61
2023/10/24 01:22:36;;;;;;;3.10;2.90;;;;;;;;;;5041917;28;20080;-60
2023/10/24 01:25:09;;;;;;;3.08;2.88;;;;;;;;;;5043962;28;20045;-60
2023/10/24 01:27:39;;;;;;;3.38;3.10;;;;;;;;;;5043429;28;20049;-60
2023/10/24 01:30:08;;;;;;;2.97;2.78;;;;;;;;;;5043980;28;20095;-60
2023/10/24 01:32:37;;;;;;;2.40;2.30;;;;;;;;;;5045714;28;20405;-60
2023/10/24 01:35:05;;;;;;;3.03;2.83;;;;;;;;;;5044031;28;20063;-60
2023/10/24 01:37:36;;;;;;;3.05;2.85;;;;;;;;;;5043298;28;20687;-60
2023/10/24 01:40:04;;;;;;;2.70;2.60;;;;;;;;;;5046818;28;20060;-60
2023/10/24 01:42:33;;;;;;;2.80;2.60;;;;;;;;;;5045681;28;20082;-59
2023/10/24 01:45:01;;;;;;;2.95;2.70;;;;;;;;;;5047142;28;20045;-60
2023/10/24 01:47:29;;;;;;;3.38;3.08;;;;;;;;;;5046005;28;20521;-60
2023/10/24 01:49:58;;;;;;;2.60;2.50;;;;;;;;;;5045018;28;20049;-60
2023/10/24 01:52:26;;;;;;;2.90;2.70;;;;;;;;;;5046813;28;20405;-60
2023/10/24 01:54:56;;;;;;;2.72;2.53;;;;;;;;;;5045396;28;20055;-60
2023/10/24 01:57:25;;;;;;;2.95;2.75;;;;;;;;;;5044616;28;20073;-60
2023/10/24 01:59:53;;;;;;;2.72;2.60;;;;;;;;;;5046987;28;20098;-60
2023/10/24 02:02:21;;;;;;;2.70;2.60;;;;;;;;;;5045084;28;20049;-59
2023/10/24 02:04:50;;;;;;;3.03;2.83;;;;;;;;;;5041514;28;20135;-60
2023/10/24 02:07:19;;;;;;;3.10;2.90;;;;;;;;;;5045094;28;20178;-60
2023/10/24 02:09:48;;;;;;;3.08;2.88;;;;;;;;;;5045841;28;20056;-61
2023/10/24 02:12:17;;;;;;;3.15;2.95;;;;;;;;;;5046760;28;20126;-60
2023/10/24 02:14:46;;;;;;;3.10;2.90;;;;;;;;;;5044942;28;20099;-60
2023/10/24 02:17:14;;;;;;;2.97;2.78;;;;;;;;;;5046773;28;20107;-60
2023/10/24 02:19:42;;;;;;;2.80;2.60;;;;;;;;;;5044139;28;20057;-59
2023/10/24 02:22:11;;;;;;;2.97;2.78;;;;;;;;;;5046468;28;20080;-60
2023/10/24 02:24:39;;;;;;;2.75;2.63;;;;;;;;;;5044904;28;20893;-60
2023/10/24 02:27:08;;;;;;;3.72;3.45;;;;;;;;;;5042657;28;20045;-60
2023/10/24 02:29:38;;;;;;;3.25;2.83;;;;;;;;;;5044525;28;20552;-60
2023/10/24 02:32:07;;;;;;;2.70;2.60;;;;;;;;;;5044161;28;20485;-60
2023/10/24 02:34:35;;;;;;;2.55;2.42;;;;;;;;;;5044755;28;20044;-60
2023/10/24 02:37:04;;;;;;;3.15;2.85;;;;;;;;;;5045862;28;20152;-59
2023/10/24 02:39:32;;;;;;;3.00;2.80;;;;;;;;;;5040860;28;20057;-60
2023/10/24 02:42:00;;;;;;;2.83;2.58;;;;;;;;;;5043449;28;20076;-60
2023/10/24 02:44:29;;;;;;;2.92;2.72;;;;;;;;;;5045169;28;20041;-60
2023/10/24 02:46:59;;;;;;;3.00;2.80;;;;;;;;;;5044401;28;20095;-60
2023/10/24 02:49:27;;;;;;;3.00;2.80;;;;;;;;;;5044648;28;20056;-60
2023/10/24 02:51:56;;;;;;;2.67;2.47;;;;;;;;;;5045131;28;20036;-60
2023/10/24 02:54:24;;;;;;;2.90;2.70;;;;;;;;;;5045877;28;20477;-60
2023/10/24 02:56:53;;;;;;;2.75;2.55;;;;;;;;;;5042587;28;20462;-60
2023/10/24 02:59:21;;;;;;;3.00;2.80;;;;;;;;;;5041917;28;20053;-60
2023/10/24 03:01:49;;;;;;;2.47;2.38;;;;;;;;;;5045078;28;20049;-60
2023/10/24 03:04:19;;;;;;;3.20;2.85;;;;;;;;;;5042709;28;20045;-59
2023/10/24 03:06:48;;;;;;;2.70;2.50;;;;;;;;;;5046069;28;20037;-60
2023/10/24 03:09:16;;;;;;;3.20;2.90;;;;;;;;;;5043587;28;20063;-60
2023/10/24 03:11:44;;;;;;;3.25;3.03;;;;;;;;;;5045215;28;20061;-60
2023/10/24 03:14:13;;;;;;;3.15;2.85;;;;;;;;;;5044616;28;20044;-60
2023/10/24 03:16:42;;;;;;;3.17;2.97;;;;;;;;;;5045569;28;20134;-60
2023/10/24 03:19:11;;;;;;;2.85;2.63;;;;;;;;;;5045413;28;20118;-60
2023/10/24 03:21:40;;;;;;;2.90;2.70;;;;;;;;;;5043149;28;20421;-59
2023/10/24 03:24:09;;;;;;;2.97;2.78;;;;;;;;;;5042899;28;20127;-60
2023/10/24 03:26:38;;;;;;;3.08;2.88;;;;;;;;;;5044219;28;20118;-60
2023/10/24 03:29:06;;;;;;;3.05;2.85;;;;;;;;;;5043021;28;20045;-60
2023/10/24 03:31:34;;;;;;;2.83;2.65;;;;;;;;;;5041578;28;20399;-60
2023/10/24 03:34:03;;;;;;;2.65;2.53;;;;;;;;;;5044184;28;20056;-60
2023/10/24 03:36:31;;;;;;;2.53;2.42;;;;;;;;;;5043205;28;20048;-60
2023/10/24 03:39:02;;;;;;;3.13;2.83;;;;;;;;;;5044534;28;20065;-60
2023/10/24 03:41:31;;;;;;;3.03;2.83;;;;;;;;;;5040030;28;20478;-59
2023/10/24 03:43:59;;;;;;;2.90;2.70;;;;;;;;;;5043347;28;20049;-62
2023/10/24 03:46:28;;;;;;;2.67;2.47;;;;;;;;;;5043787;28;20041;-60
2023/10/24 03:48:57;;;;;;;2.60;2.50;;;;;;;;;;5042782;28;20044;-60
2023/10/24 03:51:25;;;;;;;2.70;2.50;;;;;;;;;;5041124;28;20111;-60
2023/10/24 03:53:54;;;;;;;2.90;2.70;;;;;;;;;;5045112;28;20045;-60
2023/10/24 03:56:23;;;;;;;2.58;2.47;;;;;;;;;;5044995;28;20131;-61
2023/10/24 03:58:52;;;;;;;2.78;2.58;;;;;;;;;;5037428;28;20489;-60
2023/10/24 04:01:20;;;;;;;2.40;2.30;;;;;;;;;;5040720;28;20061;-60
2023/10/24 04:03:49;;;;;;;3.03;2.78;;;;;;;;;;5042421;28;20068;-60
2023/10/24 04:06:18;;;;;;;3.05;2.85;;;;;;;;;;5041935;28;20041;-57
2023/10/24 04:08:46;;;;;;;3.05;2.80;;;;;;;;;;5040821;28;20065;-60
2023/10/24 04:11:15;;;;;;;3.08;2.88;;;;;;;;;;5041356;28;20037;-60
2023/10/24 04:13:46;;;;;;;2.63;2.42;;;;;;;;;;5043397;28;20600;-60
2023/10/24 04:16:15;;;;;;;2.85;2.65;;;;;;;;;;5036366;28;20094;-59
2023/10/24 04:18:44;;;;;;;2.97;2.67;;;;;;;;;;5041297;28;20049;-59
2023/10/24 04:21:15;;;;;;;3.55;3.22;;;;;;;;;;5042993;28;20376;-60
2023/10/24 04:23:43;;;;;;;2.80;2.60;;;;;;;;;;5042120;28;20406;-60
2023/10/24 04:26:12;;;;;;;2.83;2.63;;;;;;;;;;5042556;28;20045;-60
2023/10/24 04:28:40;;;;;;;2.83;2.63;;;;;;;;;;5038953;28;20436;-60
2023/10/24 04:31:12;;;;;;;3.17;2.88;;;;;;;;;;5039588;28;20130;-60
2023/10/24 04:33:40;;;;;;;3.30;3.10;;;;;;;;;;5041572;28;20120;-60
2023/10/24 04:36:11;;;;;;;3.50;3.20;;;;;;;;;;5038986;28;20057;-60
2023/10/24 04:38:39;;;;;;;3.20;2.97;;;;;;;;;;5037044;28;20052;-60
2023/10/24 04:41:08;;;;;;;3.33;3.13;;;;;;;;;;5041185;28;20511;-60
2023/10/24 04:43:36;;;;;;;3.33;3.05;;;;;;;;;;5035820;28;20045;-59
2023/10/24 04:46:05;;;;;;;3.15;2.95;;;;;;;;;;5036584;28;20067;-60
2023/10/24 04:48:35;;;;;;;3.28;3.08;;;;;;;;;;5041073;28;20053;-59
2023/10/24 04:51:10;;;;;;;3.33;3.03;;;;;;;;;;5041521;28;20542;-59
2023/10/24 04:53:39;;;;;;;3.03;2.83;;;;;;;;;;5040778;28;20053;-59
2023/10/24 04:56:07;;;;;;;2.85;2.65;;;;;;;;;;5040502;28;20414;-60
2023/10/24 04:58:36;;;;;;;2.75;2.55;;;;;;;;;;5039846;28;20072;-59
2023/10/24 05:01:04;;;;;;;2.88;2.67;;;;;;;;;;5041356;28;20060;-59
2023/10/24 05:03:38;;;;;;;3.20;3.00;;;;;;;;;;5041256;28;20041;-60
2023/10/24 05:06:07;;;;;;;4.35;2.80;;;;;;;;;;5041545;28;20628;-59
2023/10/24 05:08:35;;;;;;;3.00;2.80;;;;;;;;;;5040913;28;20051;-59
2023/10/24 05:11:04;;;;;;;2.80;2.60;;;;;;;;;;5039780;28;20085;-59
2023/10/24 05:13:32;;;;;;;3.08;2.88;;;;;;;;;;5038934;28;20052;-60
2023/10/24 05:16:00;;;;;;;2.80;2.60;;;;;;;;;;5042838;28;20152;-60
2023/10/24 05:18:29;;;;;;;3.33;3.03;;;;;;;;;;5041143;28;20128;-60
2023/10/24 05:20:59;;;;;;;3.08;2.88;;;;;;;;;;5039428;28;20476;-61
2023/10/24 05:23:29;;;;;;;2.78;2.60;;;;;;;;;;5041577;28;20601;-60
2023/10/24 05:25:59;;;;;;;2.75;2.55;;;;;;;;;;5042987;28;20413;-60
2023/10/24 05:28:27;;;;;;;2.90;2.70;;;;;;;;;;5037141;28;20075;-60
2023/10/24 05:30:56;;;;;;;2.70;2.60;;;;;;;;;;5042317;28;20077;-59
2023/10/24 05:33:24;;;;;;;3.17;2.97;;;;;;;;;;5042711;28;20110;-59
2023/10/24 05:35:53;;;;;;;2.65;2.40;;;;;;;;;;5042522;28;20103;-59
2023/10/24 05:38:23;;;;;;;2.53;2.42;;;;;;;;;;5043790;28;20569;-59
2023/10/24 05:40:51;;;;;;;3.00;2.80;;;;;;;;;;5041256;28;20307;-59
2023/10/24 05:43:20;;;;;;;3.22;3.03;;;;;;;;;;5043499;28;20048;-59
2023/10/24 05:45:48;;;;;;;2.63;2.47;;;;;;;;;;5041359;28;20143;-59
2023/10/24 05:48:16;;;;;;;3.20;2.90;;;;;;;;;;5043090;28;20517;-59
2023/10/24 05:50:45;;;;;;;2.75;2.55;;;;;;;;;;5042579;28;20540;-59
2023/10/24 05:53:13;;;;;;;2.67;2.58;;;;;;;;;;5041889;28;20086;-59
2023/10/24 05:55:43;;;;;;;3.08;2.75;;;;;;;;;;5040689;28;20077;-60
2023/10/24 05:58:12;;;;;;;3.25;2.67;;;;;;;;;;5040937;28;20045;-59
2023/10/24 06:00:40;;;;;;;2.85;2.65;;;;;;;;;;5033740;28;20510;-59
2023/10/24 06:03:08;;;;;;;2.92;2.65;;;;;;;;;;5040886;28;20279;-59
2023/10/24 06:05:37;;;;;;;2.78;2.55;;;;;;;;;;5042965;28;20417;-60
2023/10/24 06:08:06;;;;;;;2.63;2.42;;;;;;;;;;5043076;28;20598;-59
2023/10/24 06:10:34;;;;;;;2.55;2.35;;;;;;;;;;5041642;28;20490;-59
2023/10/24 06:13:04;;;;;;;3.00;2.80;;;;;;;;;;5044033;28;20049;-59
2023/10/24 06:15:33;;;;;;;2.72;2.53;;;;;;;;;;5044674;28;20559;-59
2023/10/24 06:18:01;;;;;;;2.80;2.60;;;;;;;;;;5045424;28;20051;-59
2023/10/24 06:20:30;;;;;;;2.80;2.60;;;;;;;;;;5046979;28;20540;-59
2023/10/24 06:22:58;;;;;;;2.85;2.65;;;;;;;;;;5044334;28;20049;-59
2023/10/24 06:25:26;;;;;;;2.90;2.70;;;;;;;;;;5046172;28;20061;-60
2023/10/24 06:27:55;;;;;;;2.78;2.58;;;;;;;;;;5044102;28;20045;-60
2023/10/24 06:30:25;;;;;;;2.40;2.30;;;;;;;;;;5045081;28;20071;-59
2023/10/24 06:32:53;;;;;;;3.08;2.88;;;;;;;;;;5044144;28;20498;-59
2023/10/24 06:35:22;;;;;;;3.55;2.90;;;;;;;;;;5047392;28;20048;-60
2023/10/24 06:37:50;;;;;;;2.65;2.45;;;;;;;;;;5045033;28;20041;-59
2023/10/24 06:40:19;;;;;;;3.58;3.28;;;;;;;;;;5045038;28;20041;-59
2023/10/24 06:42:47;;;;;;;3.58;3.20;;;;;;;;;;5042833;28;20061;-59
2023/10/24 06:45:16;;;;;;;2.80;2.60;;;;;;;;;;5044542;28;20068;-59
2023/10/24 06:47:46;;;;;;;3.38;3.17;;;;;;;;;;5044780;28;20045;-60
2023/10/24 06:50:14;;;;;;;4.82;2.90;;;;;;;;;;5041166;28;20140;-60
2023/10/24 06:52:43;;;;;;;2.92;2.72;;;;;;;;;;5044049;28;20128;-60
2023/10/24 06:55:14;;;;;;;2.80;2.60;;;;;;;;;;5044869;28;20719;-60
2023/10/24 06:57:42;;;;;;;2.60;2.40;;;;;;;;;;5041376;28;20072;-60
2023/10/24 07:00:11;;;;;;;3.15;2.85;;;;;;;;;;5044413;28;20041;-59
2023/10/24 07:02:40;;;;;;;3.15;2.95;;;;;;;;;;5042855;28;20127;-59
2023/10/24 07:05:09;;;;;;;4.82;3.45;;;;;;;;;;5043302;28;20502;-60
2023/10/24 07:07:38;;;;;;;3.28;3.00;;;;;;;;;;5045457;28;20107;-61
2023/10/24 07:10:08;;;;;;;4.40;3.17;;;;;;;;;;5044179;28;20056;-61
2023/10/24 07:12:37;;;;;;;3.83;3.05;;;;;;;;;;5039034;28;20040;-60
2023/10/24 07:15:06;;;;;;;3.35;3.05;;;;;;;;;;5043541;28;20064;-61
2023/10/24 07:17:34;;;;;;;3.50;3.30;;;;;;;;;;5042762;28;20045;-61
2023/10/24 07:20:04;;;;;;;3.50;3.20;;;;;;;;;;5045573;28;20045;-61
2023/10/24 07:22:33;;;;;;;3.70;3.40;;;;;;;;;;5043531;28;20056;-61
2023/10/24 07:25:02;;;;;;;4.15;2.88;;;;;;;;;;5045004;28;20047;-61
2023/10/24 07:27:30;;;;;;;3.83;3.40;;;;;;;;;;5044013;28;20863;-61
2023/10/24 07:29:59;;;;;;;3.45;3.15;;;;;;;;;;5044732;28;20047;-61
2023/10/24 07:32:27;;;;;;;3.63;3.30;;;;;;;;;;5042543;28;20048;-62
2023/10/24 07:34:57;;;;;;;3.60;3.30;;;;;;;;;;5042760;28;20048;-61
2023/10/24 07:37:25;;;;;;;3.50;3.25;;;;;;;;;;5043986;28;20083;-60
2023/10/24 07:39:55;;;;;;;3.25;2.95;;;;;;;;;;5045055;28;20462;-61
2023/10/24 07:42:23;;;;;;;3.17;2.97;;;;;;;;;;5041364;28;20525;-60
2023/10/24 07:44:53;;;;;;;3.47;3.28;;;;;;;;;;5042478;28;20075;-61
2023/10/24 07:47:21;;;;;;;3.28;2.97;;;;;;;;;;5042755;28;20065;-62
2023/10/24 07:49:50;;;;;;;3.50;3.20;;;;;;;;;;5043051;28;20474;-61
2023/10/24 07:52:19;;;;;;;3.80;3.50;;;;;;;;;;5044253;28;20136;-61
2023/10/24 07:54:48;;;;;;;4.75;3.45;;;;;;;;;;5040510;28;20052;-61
2023/10/24 07:57:18;;;;;;;3.65;3.38;;;;;;;;;;5040989;28;20048;-60
2023/10/24 07:59:46;;;;;;;3.70;3.40;;;;;;;;;;5044607;28;20111;-61
2023/10/24 08:02:15;;;;;;;3.88;3.15;;;;;;;;;;5043106;28;20038;-61
2023/10/24 08:04:43;;;;;;;3.45;3.15;;;;;;;;;;5041704;28;20041;-61
2023/10/24 08:07:12;;;;;;;4.03;3.72;;;;;;;;;;5040684;28;20075;-61
2023/10/24 08:09:40;;;;;;;4.43;4.00;;;;;;;;;;5040994;28;20044;-61
2023/10/24 08:12:09;;;;;;;14.57;10.32;;;;;;;;;;5044509;28;20060;-61
2023/10/24 08:14:39;;;;;;;10.93;8.50;;;;;;;;;;5044693;28;20049;-61
2023/10/24 08:17:08;;;;;;;6.25;5.65;;;;;;;;;;5042125;28;20462;-61
2023/10/24 08:19:36;;;;;;;5.32;4.88;;;;;;;;;;5042290;28;20617;-61
2023/10/24 08:22:05;;;;;;;4.63;4.03;;;;;;;;;;5045169;28;20048;-61
2023/10/24 08:24:33;;;;;;;4.00;3.70;;;;;;;;;;5043190;28;20048;-61
2023/10/24 08:27:02;;;;;;;6.53;4.72;;;;;;;;;;5044942;28;20098;-60
2023/10/24 08:29:40;;;;;;;4.53;4.13;;;;;;;;;;5039242;28;20548;-60
2023/10/24 08:32:08;;;;;;;4.38;3.97;;;;;;;;;;5039401;28;20126;-61
2023/10/24 08:34:42;;;;;;;4.43;4.03;;;;;;;;;;5037459;28;20510;-61
2023/10/24 08:37:12;;;;;;;3.80;3.50;;;;;;;;;;5041784;28;20098;-61
2023/10/24 08:39:41;;;;;;;4.28;3.97;;;;;;;;;;5041433;28;20486;-61
2023/10/24 08:42:12;;;;;;;5.07;4.63;;;;;;;;;;5043007;28;20077;-61
2023/10/24 08:44:42;;;;;;;4.18;3.78;;;;;;;;;;5042736;28;20053;-61
2023/10/24 08:47:11;;;;;;;5.32;4.82;;;;;;;;;;5043367;28;20068;-61
2023/10/24 08:49:39;;;;;;;4.28;3.97;;;;;;;;;;5039882;28;20103;-61
2023/10/24 08:52:08;;;;;;;4.60;4.20;;;;;;;;;;5042706;28;20280;-61
2023/10/24 08:54:57;;;;;;;3.90;3.60;;;;;;;;;;5043755;28;20056;-61
2023/10/24 08:57:30;;;;;;;4.13;3.75;;;;;;;;;;5036357;28;20041;-61
2023/10/24 09:00:00;;;;;;;5.05;4.07;;;;;;;;;;5042445;28;20055;-62
2023/10/24 09:02:29;;;;;;;4.10;3.80;;;;;;;;;;5041705;28;20050;-62
2023/10/24 09:04:59;;;;;;;4.22;3.92;;;;;;;;;;5043446;28;20049;-61
2023/10/24 09:07:28;;;;;;;4.00;3.70;;;;;;;;;;5041000;28;20045;-62
2023/10/24 09:09:56;;;;;;;3.72;3.42;;;;;;;;;;5040210;28;20126;-62
2023/10/24 09:12:25;;;;;;;3.63;3.33;;;;;;;;;;5042668;28;20056;-62
2023/10/24 09:14:53;;;;;;;3.85;3.55;;;;;;;;;;5043648;28;20076;-61
2023/10/24 09:17:24;;;;;;;4.07;3.78;;;;;;;;;;5042902;28;20049;-61
2023/10/24 09:19:56;;;;;;;4.72;4.20;;;;;;;;;;5040334;28;20045;-61
2023/10/24 09:22:28;;;;;;;4.32;3.92;;;;;;;;;;5044262;28;20128;-61
2023/10/24 09:24:58;;;;;;;4.10;3.80;;;;;;;;;;5040887;28;20052;-61
2023/10/24 09:27:27;;;;;;;3.95;3.65;;;;;;;;;;5043620;28;20516;-61
2023/10/24 09:29:56;;;;;;;4.28;3.58;;;;;;;;;;5043116;28;20486;-60
2023/10/24 09:32:27;;;;;;;3.55;3.30;;;;;;;;;;5039899;28;20103;-60
2023/10/24 09:34:56;;;;;;;4.38;3.65;;;;;;;;;;5042574;28;20642;-61
2023/10/24 09:37:25;;;;;;;4.15;3.75;;;;;;;;;;5042622;28;20437;-61
2023/10/24 09:39:54;;;;;;;3.78;3.47;;;;;;;;;;5042353;28;20060;-61
2023/10/24 09:42:25;;;;;;;3.90;3.58;;;;;;;;;;5044043;28;20045;-62
2023/10/24 09:45:00;;;;;;;4.13;3.72;;;;;;;;;;5040456;28;20139;-61
2023/10/24 09:47:30;;;;;;;3.75;3.45;;;;;;;;;;5041859;28;20148;-62
2023/10/24 09:49:58;;;;;;;3.88;3.58;;;;;;;;;;5046977;28;20107;-61
2023/10/24 09:52:29;;;;;;;3.92;3.55;;;;;;;;;;5047184;28;20045;-62
2023/10/24 09:54:59;;;;;;;3.92;3.63;;;;;;;;;;5045124;28;20045;-62
2023/10/24 09:57:29;;;;;;;4.82;4.38;;;;;;;;;;5043974;28;20140;-62
2023/10/24 09:59:59;;;;;;;5.70;4.47;;;;;;;;;;5041578;28;20490;-62
2023/10/24 10:02:29;;;;;;;4.90;4.47;;;;;;;;;;5044253;28;20041;-62
2023/10/24 10:04:58;;;;;;;5.07;4.68;;;;;;;;;;5045788;28;20399;-62
2023/10/24 10:07:27;;;;;;;4.32;4.03;;;;;;;;;;5043924;28;20071;-64
2023/10/24 10:09:56;;;;;;;4.68;4.28;;;;;;;;;;5043967;28;20465;-63
2023/10/24 10:12:25;;;;;;;5.30;4.57;;;;;;;;;;5045892;28;20044;-62
2023/10/24 10:15:00;;;;;;;4.80;4.40;;;;;;;;;;5047288;28;20098;-62
2023/10/24 10:17:34;;;;;;;5.00;4.60;;;;;;;;;;5038784;28;20053;-62
2023/10/24 10:20:13;;;;;;;5.28;4.88;;;;;;;;;;5044896;28;20555;-63
2023/10/24 10:22:48;;;;;;;4.82;4.43;;;;;;;;;;5046527;28;20158;-62
2023/10/24 10:25:37;;;;;;;4.93;4.53;;;;;;;;;;5045823;28;20144;-63
2023/10/24 10:28:13;;;;;;;5.15;4.75;;;;;;;;;;5042887;28;20163;-63
2023/10/24 10:30:45;;;;;;;5.60;5.10;;;;;;;;;;5045865;28;20427;-63
2023/10/24 10:33:26;;;;;;;5.18;4.78;;;;;;;;;;5045305;28;20041;-62
2023/10/24 10:35:56;;;;;;;5.82;5.13;;;;;;;;;;5046165;28;20159;-63
2023/10/24 10:38:26;;;;;;;5.90;5.30;;;;;;;;;;5045273;28;20132;-62
2023/10/24 10:40:54;;;;;;;5.78;5.28;;;;;;;;;;5046390;28;20480;-62
2023/10/24 10:43:30;;;;;;;5.60;5.20;;;;;;;;;;5043550;28;20520;-63
2023/10/24 10:46:16;;;;;;;6.38;5.55;;;;;;;;;;5046530;28;20049;-62
2023/10/24 10:48:46;;;;;;;6.28;5.68;;;;;;;;;;5040074;28;20057;-62
2023/10/24 10:51:15;;;;;;;6.47;5.47;;;;;;;;;;5043580;28;20065;-62
2023/10/24 10:53:49;;;;;;;6.07;5.43;;;;;;;;;;5045569;28;20567;-62
2023/10/24 10:56:19;;;;;;;6.45;5.85;;;;;;;;;;5044052;28;20098;-62
2023/10/24 10:58:56;;;;;;;6.50;5.90;;;;;;;;;;5045521;28;20049;-61
2023/10/24 11:01:30;;;;;;;5.82;5.32;;;;;;;;;;5046522;28;20037;-62
2023/10/24 11:04:00;;;;;;;6.32;5.82;;;;;;;;;;5044453;28;20132;-62
2023/10/24 11:06:30;;;;;;;6.95;6.25;;;;;;;;;;5045702;28;20037;-62
2023/10/24 11:09:08;;;;;;;5.88;5.38;;;;;;;;;;5045930;28;20053;-62
2023/10/24 11:11:38;;;;;;;6.35;5.80;;;;;;;;;;5044635;28;20409;-63
2023/10/24 11:14:16;;;;;;;6.30;5.70;;;;;;;;;;5044622;28;20114;-61
2023/10/24 11:16:45;;;;;;;6.97;6.28;;;;;;;;;;5045709;28;20044;-62
2023/10/24 11:19:19;;;;;;;6.85;6.22;;;;;;;;;;5045437;28;20509;-62
2023/10/24 11:21:48;;;;;;;6.43;5.85;;;;;;;;;;5044958;28;20045;-62
2023/10/24 11:24:19;;;;;;;6.72;6.18;;;;;;;;;;5044461;28;20444;-62
2023/10/24 11:26:48;;;;;;;6.72;6.13;;;;;;;;;;5045717;28;20405;-62
2023/10/24 11:29:17;;;;;;;6.82;6.15;;;;;;;;;;5046286;28;20055;-62
2023/10/24 11:31:45;;;;;;;7.32;6.43;;;;;;;;;;5042228;28;20061;-62
2023/10/24 11:34:20;;;;;;;6.63;6.13;;;;;;;;;;5044002;28;20052;-62
2023/10/24 11:36:48;;;;;;;7.97;7.18;;;;;;;;;;5045091;28;20136;-62
2023/10/24 11:39:16;;;;;;;7.18;6.47;;;;;;;;;;5041262;28;20545;-62
2023/10/24 11:41:46;;;;;;;6.85;6.25;;;;;;;;;;5044193;28;20099;-62
2023/10/24 11:44:17;;;;;;;7.55;6.70;;;;;;;;;;5044624;28;20052;-62
2023/10/24 11:46:46;;;;;;;7.07;6.47;;;;;;;;;;5046241;28;20131;-62
2023/10/24 11:49:14;;;;;;;7.97;7.28;;;;;;;;;;5042679;28;20083;-62
2023/10/24 11:51:44;;;;;;;7.43;6.75;;;;;;;;;;5041701;28;20163;-62
2023/10/24 11:54:13;;;;;;;8.80;7.90;;;;;;;;;;5045181;28;20053;-62
2023/10/24 11:56:42;;;;;;;8.52;7.70;;;;;;;;;;5046156;28;20049;-63
2023/10/24 11:59:12;;;;;;;7.63;6.82;;;;;;;;;;5044605;28;20379;-62
2023/10/24 12:01:43;;;;;;;8.13;7.32;;;;;;;;;;5040848;28;20049;-62
2023/10/24 12:04:13;;;;;;;7.50;6.80;;;;;;;;;;5044409;28;20055;-63
2023/10/24 12:06:40;;;;;;;8.05;6.80;;;;;;;;;;5040666;28;20049;-62
2023/10/24 12:09:10;;;;;;;7.70;6.68;;;;;;;;;;5040254;28;20072;-63
2023/10/24 12:11:38;;;;;;;7.47;6.78;;;;;;;;;;5041601;28;20134;-62
2023/10/24 12:14:07;;;;;;;8.77;7.88;;;;;;;;;;5043527;28;20131;-63
2023/10/24 12:16:39;;;;;;;8.00;7.30;;;;;;;;;;5043717;28;20496;-63
2023/10/24 12:19:26;;;;;;;9.40;8.48;;;;;;;;;;5040290;28;20060;-64
2023/10/24 12:21:55;;;;;;;7.90;7.28;;;;;;;;;;5041135;28;20479;-64
2023/10/24 12:24:25;;;;;;;9.00;8.20;;;;;;;;;;5039637;28;20098;-62
2023/10/24 12:26:53;;;;;;;8.93;8.02;;;;;;;;;;5040048;28;20076;-63
2023/10/24 12:29:23;;;;;;;8.40;7.60;;;;;;;;;;5040569;28;20100;-64
2023/10/24 12:31:51;;;;;;;8.30;7.55;;;;;;;;;;5038919;28;20059;-64
2023/10/24 12:34:20;;;;;;;7.80;7.10;;;;;;;;;;5036671;28;20139;-63
2023/10/24 12:36:49;;;;;;;8.13;7.32;;;;;;;;;;5042321;28;20158;-63
2023/10/24 12:39:21;;;;;;;7.72;6.80;;;;;;;;;;5040238;28;20051;-62
2023/10/24 12:41:52;;;;;;;7.93;7.22;;;;;;;;;;5043210;28;20045;-63
2023/10/24 12:44:20;;;;;;;8.20;7.32;;;;;;;;;;5037158;28;20144;-63
2023/10/24 12:46:48;;;;;;;7.78;6.97;;;;;;;;;;5043808;28;20057;-63
2023/10/24 12:49:17;;;;;;;7.82;7.13;;;;;;;;;;5039276;28;20054;-63
2023/10/24 12:51:46;;;;;;;6.82;6.18;;;;;;;;;;5041734;28;20057;-62
2023/10/24 12:54:14;;;;;;;7.45;6.75;;;;;;;;;;5042461;28;20052;-61
2023/10/24 12:56:43;;;;;;;7.35;6.75;;;;;;;;;;5041317;28;20498;-62
2023/10/24 12:59:12;;;;;;;7.82;7.10;;;;;;;;;;5038238;28;20045;-62
2023/10/24 13:01:41;;;;;;;8.18;7.50;;;;;;;;;;5039278;28;20048;-62
2023/10/24 13:04:09;;;;;;;7.20;6.50;;;;;;;;;;5042925;28;20052;-61
2023/10/24 13:06:38;;;;;;;7.32;6.63;;;;;;;;;;5040228;28;20044;-61
2023/10/24 13:09:08;;;;;;;7.15;6.55;;;;;;;;;;5042930;28;20041;-61
2023/10/24 13:11:41;;;;;;;7.15;6.50;;;;;;;;;;5043339;28;20516;-62
2023/10/24 13:14:09;;;;;;;7.47;6.65;;;;;;;;;;5039141;28;20061;-62
2023/10/24 13:16:40;;;;;;;16.65;15.05;;;;;;;;;;5039325;28;20049;-61
2023/10/24 13:19:08;;;;;;;11.57;10.48;;;;;;;;;;5039823;28;20049;-62
2023/10/24 13:21:37;;;;;;;9.77;8.77;;;;;;;;;;5040248;28;20053;-62
2023/10/24 13:24:05;;;;;;;9.15;8.35;;;;;;;;;;5044062;28;20041;-62
2023/10/24 13:26:34;;;;;;;8.48;7.60;;;;;;;;;;5041999;28;20114;-61
2023/10/24 13:29:02;;;;;;;8.02;7.32;;;;;;;;;;5043593;28;20049;-61
2023/10/24 13:31:31;;;;;;;7.50;6.22;;;;;;;;;;5045873;28;20139;-60
2023/10/24 13:34:01;;;;;;;8.13;6.40;;;;;;;;;;5046098;28;20056;-60
2023/10/24 13:36:32;;;;;;;9.80;6.50;;;;;;;;;;5041063;28;20552;-61
2023/10/24 13:39:01;;;;;;;6.95;6.28;;;;;;;;;;5045094;28;20075;-61
2023/10/24 13:41:29;;;;;;;6.63;5.90;;;;;;;;;;5046055;28;20052;-60
2023/10/24 13:43:58;;;;;;;7.15;6.47;;;;;;;;;;5044923;28;20340;-60
2023/10/24 13:46:27;;;;;;;5.95;5.53;;;;;;;;;;5044032;28;20453;-60
2023/10/24 13:48:57;;;;;;;7.13;6.43;;;;;;;;;;5042248;28;20053;-60
2023/10/24 13:51:28;;;;;;;6.85;6.25;;;;;;;;;;5042956;28;20173;-61
2023/10/24 13:53:56;;;;;;;7.00;6.40;;;;;;;;;;5038307;28;20095;-60
2023/10/24 13:56:25;;;;;;;6.10;5.60;;;;;;;;;;5047096;28;20041;-61
2023/10/24 13:58:53;;;;;;;6.90;6.20;;;;;;;;;;5047797;28;20049;-61
2023/10/24 14:01:22;;;;;;;6.72;6.15;;;;;;;;;;5044151;28;20132;-60
2023/10/24 14:03:51;;;;;;;6.85;6.25;;;;;;;;;;5041469;28;20060;-61
2023/10/24 14:06:20;;;;;;;8.13;6.00;;;;;;;;;;5044760;28;20053;-61
2023/10/24 14:08:49;;;;;;;7.05;6.40;;;;;;;;;;5047659;28;20045;-60
2023/10/24 14:11:18;;;;;;;6.22;5.72;;;;;;;;;;5043818;28;20132;-61
2023/10/24 14:13:47;;;;;;;8.18;6.25;;;;;;;;;;5044858;28;20041;-60
2023/10/24 14:16:15;;;;;;;7.40;6.68;;;;;;;;;;5043218;28;20076;-61
2023/10/24 14:18:44;;;;;;;6.95;5.75;;;;;;;;;;5043714;28;20098;-61
2023/10/24 14:21:12;;;;;;;6.20;5.60;;;;;;;;;;5045051;28;20060;-60
2023/10/24 14:23:41;;;;;;;5.88;5.28;;;;;;;;;;5042747;28;20048;-60
2023/10/24 14:26:11;;;;;;;5.63;5.13;;;;;;;;;;5044710;28;20051;-61
2023/10/24 14:28:40;;;;;;;5.40;4.90;;;;;;;;;;5046062;28;20071;-60
2023/10/24 14:31:09;;;;;;;5.32;4.72;;;;;;;;;;5047869;28;20060;-60
2023/10/24 14:33:38;;;;;;;5.38;4.85;;;;;;;;;;5045607;28;20037;-59
2023/10/24 14:36:07;;;;;;;5.35;4.85;;;;;;;;;;5038414;28;20048;-60
2023/10/24 14:38:35;;;;;;;4.60;4.20;;;;;;;;;;5045494;28;20052;-60
2023/10/24 14:41:03;;;;;;;4.80;4.40;;;;;;;;;;5046575;28;20045;-60
2023/10/24 14:43:35;;;;;;;5.93;5.05;;;;;;;;;;5044155;28;20041;-60
2023/10/24 14:46:04;;;;;;;4.63;4.22;;;;;;;;;;5045240;28;20169;-59
2023/10/24 14:48:32;;;;;;;4.35;4.05;;;;;;;;;;5044697;28;20506;-61
2023/10/24 14:51:05;;;;;;;4.15;3.78;;;;;;;;;;5040848;28;20055;-60
2023/10/24 14:53:32;;;;;;;4.80;4.45;;;;;;;;;;5044013;28;20049;-60
2023/10/24 14:56:01;;;;;;;4.78;4.38;;;;;;;;;;5042616;28;20037;-60